Time;durP1;ratioP1;P1;durP2;ratioP2;P2;SDS_P1;SDS_P2;PMS_P1;PMS_P2;Temp;Humidity;BMP_temperature;BMP_pressure;BME280_temperature;BME280_humidity;BME280_pressure;Samples;Min_cycle;Max_cycle;Signal;HPM_P1;HPM_P2
2022/11/30 00:01:11;;;;;;;;;;;;;;;5.08;100.00;96690.19;5094808;28;19956;-76
2022/11/30 00:03:37;;;;;;;;;;;;;;;5.07;100.00;96685.97;5094852;28;19953;-77
2022/11/30 00:06:04;;;;;;;;;;;;;;;5.07;100.00;96685.97;5095122;28;19987;-76
2022/11/30 00:08:30;;;;;;;;;;;;;;;5.06;100.00;96682.56;5094978;28;19945;-77
2022/11/30 00:10:56;;;;;;;;;;;;;;;5.06;100.00;96677.38;5095865;28;20042;-77
2022/11/30 00:13:22;;;;;;;;;;;;;;;5.04;100.00;96684.53;5095622;28;19982;-77
2022/11/30 00:15:47;;;;;;;;;;;;;;;5.03;100.00;96677.72;5094628;28;19974;-77
2022/11/30 00:18:16;;;;;;;;;;;;;;;5.01;100.00;96676.28;5095533;28;20332;-77
2022/11/30 00:20:42;;;;;;;;;;;;;;;4.99;100.00;96681.66;5094613;28;19964;-77
2022/11/30 00:23:08;;;;;;;;;;;;;;;5.01;100.00;96678.88;5077913;28;19980;-77
2022/11/30 00:25:35;;;;;;;;;;;;;;;5.01;100.00;96682.28;5095570;28;19969;-78
2022/11/30 00:28:01;;;;;;;;;;;;;;;5.03;100.00;96679.50;5094641;28;20010;-78
2022/11/30 00:30:27;;;;;;;;;;;;;;;5.02;100.00;96672.72;5095509;28;19952;-78
2022/11/30 00:32:57;;;;;;;;;;;;;;;5.02;100.00;96672.72;5094732;28;20321;-78
2022/11/30 00:35:23;;;;;;;;;;;;;;;5.02;100.00;96678.72;5095606;28;19984;-78
2022/11/30 00:37:49;;;;;;;;;;;;;;;5.01;100.00;96684.09;5094253;28;20314;-78
2022/11/30 00:40:15;;;;;;;;;;;;;;;5.02;100.00;96677.91;5095497;28;19957;-78
2022/11/30 00:42:40;;;;;;;;;;;;;;;5.02;100.00;96678.72;5095183;28;20040;-78
2022/11/30 00:45:07;;;;;;;;;;;;;;;5.00;100.00;96680.69;5095124;28;20066;-78
2022/11/30 00:47:33;;;;;;;;;;;;;;;5.01;100.00;96677.09;5095447;28;19958;-77
2022/11/30 00:49:58;;;;;;;;;;;;;;;5.00;100.00;96675.47;5095558;28;19948;-78
2022/11/30 00:52:24;;;;;;;;;;;;;;;4.99;100.00;96683.44;5095100;28;19994;-78
2022/11/30 00:54:50;;;;;;;;;;;;;;;4.97;100.00;96681.00;5093831;28;20000;-78
2022/11/30 00:57:16;;;;;;;;;;;;;;;4.94;100.00;96681.38;5076884;28;19953;-76
2022/11/30 00:59:42;;;;;;;;;;;;;;;4.95;100.00;96677.78;5094847;28;19955;-78
2022/11/30 01:02:08;;;;;;;;;;;;;;;4.93;100.00;96678.94;5095058;28;20083;-78
2022/11/30 01:04:33;;;;;;;;;;;;;;;4.92;100.00;96685.94;5093874;28;20018;-78
2022/11/30 01:06:59;;;;;;;;;;;;;;;4.91;100.00;96684.31;5094925;28;20477;-78
2022/11/30 01:09:25;;;;;;;;;;;;;;;4.93;100.00;96692.75;5093145;28;20033;-77
2022/11/30 01:11:51;;;;;;;;;;;;;;;4.92;100.00;96691.16;5093606;28;20005;-78
2022/11/30 01:14:17;;;;;;;;;;;;;;;4.94;100.00;96691.78;5094757;28;20364;-78
2022/11/30 01:16:43;;;;;;;;;;;;;;;4.94;100.00;96691.78;5076517;28;19986;-77
2022/11/30 01:19:09;;;;;;;;;;;;;;;4.96;100.00;96696.81;5094829;28;19947;-76
2022/11/30 01:21:35;;;;;;;;;;;;;;;4.96;100.00;96696.81;5094599;28;19949;-78
2022/11/30 01:24:00;;;;;;;;;;;;;;;4.94;100.00;96694.38;5093785;28;20305;-77
2022/11/30 01:26:26;;;;;;;;;;;;;;;4.91;100.00;96692.13;5093143;28;20016;-78
2022/11/30 01:28:53;;;;;;;;;;;;;;;4.91;100.00;96696.50;5094785;28;19946;-78
2022/11/30 01:31:20;;;;;;;;;;;;;;;4.91;100.00;96689.50;5093071;28;19978;-78
2022/11/30 01:33:50;;;;;;;;;;;;;;;4.92;100.00;96693.75;5066047;28;19980;-78
2022/11/30 01:36:17;;;;;;;;;;;;;;;4.92;100.00;96701.53;5094420;28;19947;-77
2022/11/30 01:38:45;;;;;;;;;;;;;;;4.93;100.00;96704.94;5094158;28;19951;-77
2022/11/30 01:41:12;;;;;;;;;;;;;;;4.94;100.00;96701.38;5094287;28;19946;-78
2022/11/30 01:43:43;;;;;;;;;;;;;;;4.91;100.00;96705.09;5094660;28;19951;-77
2022/11/30 01:46:18;;;;;;;;;;;;;;;4.90;100.00;96707.91;5094178;28;19970;-77
2022/11/30 01:48:45;;;;;;;;;;;;;;;4.87;100.00;96709.03;5093042;28;20281;-78
2022/11/30 01:51:11;;;;;;;;;;;;;;;4.86;100.00;96713.44;5092823;28;20330;-77
2022/11/30 01:53:37;;;;;;;;;;;;;;;4.85;100.00;96711.84;5094214;28;19946;-78
2022/11/30 01:56:03;;;;;;;;;;;;;;;4.84;100.00;96709.41;5092807;28;19960;-79
2022/11/30 01:58:29;;;;;;;;;;;;;;;4.81;100.00;96704.56;5094156;28;19982;-78
2022/11/30 02:00:55;;;;;;;;;;;;;;;4.80;100.00;96711.53;5094139;28;19950;-77
2022/11/30 02:03:38;;;;;;;;;;;;;;;4.77;100.00;96708.50;5094150;28;19999;-77
2022/11/30 02:06:04;;;;;;;;;;;;;;;4.76;100.00;96712.06;5081752;28;20432;-77
2022/11/30 02:08:30;;;;;;;;;;;;;;;4.75;100.00;96713.06;5092705;28;19959;-78
2022/11/30 02:11:03;;;;;;;;;;;;;;;4.76;100.00;96715.47;5093948;28;19995;-78
2022/11/30 02:13:38;;;;;;;;;;;;;;;4.76;100.00;96712.88;5092938;28;20053;-78
2022/11/30 02:16:09;;;;;;;;;;;;;;;4.77;100.00;96716.28;5093791;28;19952;-78
2022/11/30 02:18:38;;;;;;;;;;;;;;;4.78;100.00;96713.50;5075602;28;19949;-78
2022/11/30 02:21:03;;;;;;;;;;;;;;;4.80;100.00;96715.94;5092862;28;20342;-78
2022/11/30 02:23:45;;;;;;;;;;;;;;;4.79;100.00;96709.94;5075773;28;19978;-78
2022/11/30 02:26:34;;;;;;;;;;;;;;;4.81;100.00;96712.38;5093759;28;19994;-78
2022/11/30 02:29:08;;;;;;;;;;;;;;;4.84;100.00;96714.59;5069938;28;20491;-78
2022/11/30 02:31:41;;;;;;;;;;;;;;;4.83;100.00;96706.00;5092277;28;19954;-78
2022/11/30 02:34:09;;;;;;;;;;;;;;;4.83;100.00;96712.97;5092184;28;20453;-79
2022/11/30 02:36:35;;;;;;;;;;;;;;;4.85;100.00;96714.44;5092366;28;20023;-78
2022/11/30 02:39:01;;;;;;;;;;;;;;;4.86;100.00;96710.03;5092212;28;19951;-77
2022/11/30 02:41:33;;;;;;;;;;;;;;;4.86;100.00;96707.44;5093470;28;19951;-78
2022/11/30 02:44:00;;;;;;;;;;;;;;;4.85;100.00;96717.03;5094474;28;20295;-78
2022/11/30 02:46:30;;;;;;;;;;;;;;;4.83;100.00;96711.19;5093560;28;19975;-78
2022/11/30 02:49:05;;;;;;;;;;;;;;;4.85;100.00;96713.59;5075694;28;19946;-78
2022/11/30 02:51:32;;;;;;;;;;;;;;;4.84;100.00;96709.41;5093608;28;19954;-78
2022/11/30 02:53:58;;;;;;;;;;;;;;;4.81;100.00;96713.16;5093509;28;19946;-78
2022/11/30 02:56:24;;;;;;;;;;;;;;;4.83;100.00;96712.97;5092094;28;20319;-78
2022/11/30 02:58:51;;;;;;;;;;;;;;;4.83;100.00;96713.81;5093483;28;20040;-78
2022/11/30 03:01:17;;;;;;;;;;;;;;;4.83;100.00;96721.59;5092121;28;19966;-78
2022/11/30 03:03:43;;;;;;;;;;;;;;;4.82;100.00;96716.56;5093357;28;19968;-78
2022/11/30 03:06:09;;;;;;;;;;;;;;;4.82;100.00;96719.16;5093210;28;19976;-77
2022/11/30 03:08:35;;;;;;;;;;;;;;;4.81;100.00;96715.75;5093144;28;19967;-76
2022/11/30 03:11:02;;;;;;;;;;;;;;;4.83;100.00;96718.16;5092404;28;20042;-77
2022/11/30 03:13:32;;;;;;;;;;;;;;;4.85;100.00;96724.00;5093520;28;19955;-76
2022/11/30 03:16:03;;;;;;;;;;;;;;;4.84;100.00;96717.19;5093172;28;19957;-78
2022/11/30 03:18:30;;;;;;;;;;;;;;;4.80;100.00;96721.13;5093581;28;19955;-78
2022/11/30 03:20:56;;;;;;;;;;;;;;;4.78;100.00;96725.69;5075069;28;19957;-78
2022/11/30 03:23:22;;;;;;;;;;;;;;;4.79;100.00;96719.53;5091924;28;19957;-77
2022/11/30 03:25:48;;;;;;;;;;;;;;;4.82;100.00;96729.56;5093394;28;20022;-79
2022/11/30 03:28:14;;;;;;;;;;;;;;;4.84;100.00;96727.59;5092280;28;19994;-78
2022/11/30 03:30:40;;;;;;;;;;;;;;;4.83;100.00;96726.78;5074949;28;19947;-78
2022/11/30 03:33:06;;;;;;;;;;;;;;;4.82;100.00;96732.16;5096286;28;19950;-77
2022/11/30 03:35:31;;;;;;;;;;;;;;;4.81;100.00;96727.97;5096734;28;20066;-78
2022/11/30 03:37:57;;;;;;;;;;;;;;;4.78;100.00;96734.28;5096469;28;19999;-78
2022/11/30 03:40:23;;;;;;;;;;;;;;;4.77;100.00;96724.09;5095644;28;20328;-78
2022/11/30 03:42:49;;;;;;;;;;;;;;;4.75;100.00;96726.84;5084919;28;20013;-78
2022/11/30 03:45:15;;;;;;;;;;;;;;;4.76;100.00;96728.44;5096416;28;20024;-78
2022/11/30 03:47:42;;;;;;;;;;;;;;;4.80;100.00;96736.72;5096501;28;19960;-78
2022/11/30 03:50:08;;;;;;;;;;;;;;;4.81;100.00;96731.34;5096352;28;20415;-78
2022/11/30 03:52:34;;;;;;;;;;;;;;;4.81;100.00;96733.97;5095023;28;19951;-78
2022/11/30 03:54:59;;;;;;;;;;;;;;;4.81;100.00;96723.56;5095173;28;20042;-77
2022/11/30 03:57:25;;;;;;;;;;;;;;;4.81;100.00;96723.56;5095793;28;19955;-78
2022/11/30 03:59:51;;;;;;;;;;;;;;;4.81;100.00;96736.56;5096077;28;19966;-78
2022/11/30 04:02:17;;;;;;;;;;;;;;;4.79;100.00;96729.91;5094847;28;19954;-78
2022/11/30 04:04:43;;;;;;;;;;;;;;;4.78;100.00;96725.69;5095955;28;20001;-77
2022/11/30 04:07:09;;;;;;;;;;;;;;;4.78;100.00;96734.28;5095880;28;19975;-77
2022/11/30 04:09:35;;;;;;;;;;;;;;;4.78;100.00;96729.09;5094818;28;20445;-78
2022/11/30 04:12:00;;;;;;;;;;;;;;;4.78;100.00;96730.88;5095177;28;20308;-77
2022/11/30 04:14:26;;;;;;;;;;;;;;;4.78;100.00;96736.09;5095822;28;20049;-77
2022/11/30 04:16:52;;;;;;;;;;;;;;;4.78;100.00;96730.88;5095735;28;20419;-77
2022/11/30 04:19:18;;;;;;;;;;;;;;;4.80;100.00;96736.72;5095790;28;19996;-77
2022/11/30 04:21:44;;;;;;;;;;;;;;;4.78;100.00;96738.69;5094886;28;19954;-77
2022/11/30 04:24:10;;;;;;;;;;;;;;;4.80;100.00;96736.72;5096157;28;19958;-76
2022/11/30 04:26:35;;;;;;;;;;;;;;;4.80;100.00;96732.31;5094404;28;20016;-76
2022/11/30 04:29:01;;;;;;;;;;;;;;;4.80;100.00;96732.31;5095728;28;20470;-78
2022/11/30 04:31:27;;;;;;;;;;;;;;;4.81;100.00;96735.75;5094357;28;20044;-78
2022/11/30 04:33:53;;;;;;;;;;;;;;;4.80;100.00;96737.53;5095196;28;19974;-78
2022/11/30 04:36:20;;;;;;;;;;;;;;;4.83;100.00;96736.34;5095764;28;20014;-77
2022/11/30 04:38:46;;;;;;;;;;;;;;;4.82;100.00;96729.56;5095357;28;19957;-78
2022/11/30 04:41:12;;;;;;;;;;;;;;;4.81;100.00;96733.97;5094295;28;19951;-78
2022/11/30 04:43:38;;;;;;;;;;;;;;;4.83;100.00;96737.19;5093175;28;19966;-78
2022/11/30 04:46:05;;;;;;;;;;;;;;;4.85;100.00;96737.81;5095319;28;20433;-79
2022/11/30 04:48:30;;;;;;;;;;;;;;;4.86;100.00;96736.03;5095165;28;19953;-77
2022/11/30 04:51:04;;;;;;;;;;;;;;;4.84;100.00;96731.00;5095223;28;19951;-77
2022/11/30 04:53:31;;;;;;;;;;;;;;;4.85;100.00;96737.81;5095237;28;19951;-79
2022/11/30 04:55:57;;;;;;;;;;;;;;;4.86;100.00;96736.03;5095173;28;19944;-79
2022/11/30 04:58:23;;;;;;;;;;;;;;;4.85;100.00;96734.38;5093835;28;19952;-78
2022/11/30 05:00:52;;;;;;;;;;;;;;;4.83;100.00;96737.19;5095052;28;20331;-78
2022/11/30 05:03:17;;;;;;;;;;;;;;;4.83;100.00;96733.75;5094744;28;19953;-78
2022/11/30 05:05:43;;;;;;;;;;;;;;;4.81;100.00;96733.97;5094739;28;19999;-76
2022/11/30 05:08:09;;;;;;;;;;;;;;;4.80;100.00;96742.72;5095007;28;19953;-78
2022/11/30 05:10:35;;;;;;;;;;;;;;;4.79;100.00;96735.13;5076631;28;20412;-78
2022/11/30 05:13:01;;;;;;;;;;;;;;;4.78;100.00;96734.28;5095018;28;19959;-78
2022/11/30 05:15:27;;;;;;;;;;;;;;;4.80;100.00;96736.72;5094506;28;19947;-78
2022/11/30 05:17:56;;;;;;;;;;;;;;;4.79;100.00;96746.31;5076525;28;19952;-78
2022/11/30 05:20:22;;;;;;;;;;;;;;;4.81;100.00;96744.34;5093338;28;19960;-78
2022/11/30 05:22:48;;;;;;;;;;;;;;;4.82;100.00;96745.16;5093428;28;20407;-78
2022/11/30 05:25:14;;;;;;;;;;;;;;;4.83;100.00;96747.59;5093358;28;19965;-77
2022/11/30 05:27:40;;;;;;;;;;;;;;;4.83;100.00;96742.38;5093236;28;19996;-78
2022/11/30 05:30:06;;;;;;;;;;;;;;;4.83;100.00;96746.75;5094601;28;19962;-78
2022/11/30 05:32:32;;;;;;;;;;;;;;;4.81;100.00;96743.53;5076393;28;20427;-77
2022/11/30 05:34:58;;;;;;;;;;;;;;;4.81;100.00;96751.34;5093026;28;19985;-77
2022/11/30 05:37:24;;;;;;;;;;;;;;;4.80;100.00;96750.50;5093207;28;19957;-77
2022/11/30 05:39:49;;;;;;;;;;;;;;;4.81;100.00;96746.94;5093472;28;19997;-77
2022/11/30 05:42:15;;;;;;;;;;;;;;;4.82;100.00;96745.16;5091631;28;19957;-78
2022/11/30 05:44:41;;;;;;;;;;;;;;;4.83;100.00;96744.97;5092964;28;20435;-78
2022/11/30 05:47:07;;;;;;;;;;;;;;;4.83;100.00;96750.19;5094189;28;20405;-78
2022/11/30 05:49:33;;;;;;;;;;;;;;;4.81;100.00;96753.94;5092921;28;19957;-77
2022/11/30 05:51:59;;;;;;;;;;;;;;;4.82;100.00;96753.75;5076563;28;19956;-78
2022/11/30 05:54:25;;;;;;;;;;;;;;;4.80;100.00;96753.09;5092775;28;20491;-78
2022/11/30 05:56:51;;;;;;;;;;;;;;;4.80;100.00;96757.50;5094161;28;20051;-78
2022/11/30 05:59:17;;;;;;;;;;;;;;;4.81;100.00;96759.94;5094028;28;20035;-78
2022/11/30 06:01:43;;;;;;;;;;;;;;;4.84;100.00;96753.56;5092733;28;19952;-78
2022/11/30 06:04:09;;;;;;;;;;;;;;;4.82;100.00;96756.34;5093159;28;19960;-78
2022/11/30 06:06:34;;;;;;;;;;;;;;;4.82;100.00;96755.53;5093640;28;19996;-78
2022/11/30 06:09:00;;;;;;;;;;;;;;;4.82;100.00;96761.53;5092572;28;20475;-78
2022/11/30 06:11:26;;;;;;;;;;;;;;;4.81;100.00;96752.13;5075637;28;19942;-78
2022/11/30 06:13:52;;;;;;;;;;;;;;;4.81;100.00;96759.13;5092761;28;19950;-78
2022/11/30 06:16:18;;;;;;;;;;;;;;;4.81;100.00;96749.53;5092772;28;20308;-77
2022/11/30 06:18:44;;;;;;;;;;;;;;;4.78;100.00;96757.66;5093638;28;20049;-78
2022/11/30 06:21:10;;;;;;;;;;;;;;;4.78;100.00;96749.06;5092951;28;20323;-77
2022/11/30 06:23:36;;;;;;;;;;;;;;;4.76;100.00;96749.25;5093703;28;19948;-77
2022/11/30 06:26:06;;;;;;;;;;;;;;;4.74;100.00;96753.81;5092481;28;20343;-77
2022/11/30 06:28:32;;;;;;;;;;;;;;;4.74;100.00;96748.59;5075450;28;19950;-77
2022/11/30 06:30:59;;;;;;;;;;;;;;;4.74;100.00;96751.19;5093626;28;20324;-77
2022/11/30 06:33:25;;;;;;;;;;;;;;;4.73;100.00;96746.19;5091913;28;20401;-77
2022/11/30 06:35:51;;;;;;;;;;;;;;;4.74;100.00;96753.81;5093697;28;19955;-77
2022/11/30 06:38:17;;;;;;;;;;;;;;;4.74;100.00;96748.59;5093430;28;19951;-78
2022/11/30 06:40:43;;;;;;;;;;;;;;;4.74;100.00;96755.59;5092446;28;20412;-79
2022/11/30 06:43:09;;;;;;;;;;;;;;;4.72;100.00;96755.75;5092066;28;19958;-77
2022/11/30 06:45:35;;;;;;;;;;;;;;;4.74;100.00;96758.19;5093491;28;19961;-78
2022/11/30 06:48:01;;;;;;;;;;;;;;;4.73;100.00;96751.41;5092168;28;20399;-78
2022/11/30 06:50:27;;;;;;;;;;;;;;;4.73;100.00;96761.78;5092383;28;19950;-78
2022/11/30 06:52:54;;;;;;;;;;;;;;;4.72;100.00;96757.56;5075630;28;19994;-78
2022/11/30 06:55:20;;;;;;;;;;;;;;;4.71;100.00;96764.56;5092091;28;19954;-78
2022/11/30 06:57:46;;;;;;;;;;;;;;;4.72;100.00;96765.34;5093269;28;19956;-78
2022/11/30 07:00:13;;;;;;;;;;;;;;;4.72;100.00;96753.16;5091975;28;20405;-78
2022/11/30 07:02:38;;;;;;;;;;;;;;;4.73;100.00;96759.19;5075618;28;19953;-77
2022/11/30 07:05:04;;;;;;;;;;;;;;;4.72;100.00;96766.16;5118905;28;20345;-77
2022/11/30 07:07:30;;;;;;;;;;;;;;;4.74;100.00;96771.19;5095062;28;19973;-77
2022/11/30 07:09:56;;;;;;;;;;;;;;;4.74;100.00;96766.00;5097068;28;19946;-77
2022/11/30 07:12:23;;;;;;;;;;;;;;;4.74;100.00;96766.00;5097186;28;20032;-77
2022/11/30 07:14:51;;;;;;;;;;;;;;;4.75;100.00;96773.63;5095886;28;19953;-77
2022/11/30 07:17:18;;;;;;;;;;;;;;;4.76;100.00;96764.03;5097166;28;19963;-78
2022/11/30 07:19:45;;;;;;;;;;;;;;;4.80;100.00;96779.09;5095767;28;20330;-77
2022/11/30 07:22:11;;;;;;;;;;;;;;;4.81;100.00;96775.53;5097120;28;20319;-78
2022/11/30 07:27:22;;;;;;;;;;;;;;;4.84;100.00;96775.16;5097297;28;19977;-78
2022/11/30 07:29:50;;;;;;;;;;;;;;;4.86;100.00;96775.00;5096690;28;19955;-78
2022/11/30 07:32:16;;;;;;;;;;;;;;;4.90;100.00;96780.66;5095493;28;19952;-78
2022/11/30 07:34:42;;;;;;;;;;;;;;;4.91;100.00;96775.28;5096097;28;19983;-77
2022/11/30 07:37:08;;;;;;;;;;;;;;;4.94;100.00;96777.53;5095781;28;19954;-76
2022/11/30 07:39:35;;;;;;;;;;;;;;;4.99;100.00;96777.81;5096649;28;19951;-78
2022/11/30 07:42:00;;;;;;;;;;;;;;;5.02;100.00;96782.69;5097183;28;19951;-77
2022/11/30 07:44:26;;;;;;;;;;;;;;;5.03;100.00;96776.50;5095305;28;19982;-79
2022/11/30 07:46:52;;;;;;;;;;;;;;;5.03;100.00;96779.09;5096450;28;19961;-77
2022/11/30 07:49:18;;;;;;;;;;;;;;;5.03;100.00;96779.09;5096534;28;20470;-77
2022/11/30 07:51:44;;;;;;;;;;;;;;;5.04;100.00;96783.31;5096358;28;19978;-76
2022/11/30 07:54:10;;;;;;;;;;;;;;;5.06;100.00;96786.56;5095171;28;20300;-76
2022/11/30 07:56:36;;;;;;;;;;;;;;;5.07;100.00;96792.56;5096441;28;19953;-75
2022/11/30 07:59:02;;;;;;;;;;;;;;;5.08;100.00;96782.00;5096761;28;20039;-77
2022/11/30 08:01:29;;;;;;;;;;;;;;;5.08;100.00;96786.34;5095369;28;19969;-76
2022/11/30 08:03:55;;;;;;;;;;;;;;;5.08;100.00;96786.34;5094941;28;19979;-78
2022/11/30 08:06:23;;;;;;;;;;;;;;;5.11;100.00;96793.81;5096002;28;20036;-77
2022/11/30 08:08:50;;;;;;;;;;;;;;;5.14;100.00;96790.06;5095991;28;19950;-76
2022/11/30 08:11:18;;;;;;;;;;;;;;;5.17;100.00;96790.53;5095859;28;19943;-77
2022/11/30 08:13:44;;;;;;;;;;;;;;;5.21;100.00;96791.78;5096150;28;19955;-77
2022/11/30 08:16:17;;;;;;;;;;;;;;;5.24;100.00;96796.63;5095887;28;20041;-76
2022/11/30 08:18:43;;;;;;;;;;;;;;;5.25;100.00;96797.47;5095586;28;20318;-78
2022/11/30 08:21:10;;;;;;;;;;;;;;;5.27;100.00;96800.66;5096005;28;20425;-78
2022/11/30 08:23:38;;;;;;;;;;;;;;;5.29;100.00;96803.91;5095869;28;19952;-78
2022/11/30 08:26:05;;;;;;;;;;;;;;;5.27;100.00;96806.69;5095950;28;20334;-78
2022/11/30 08:28:31;;;;;;;;;;;;;;;5.26;100.00;96801.66;5095806;28;19955;-77
2022/11/30 08:30:58;;;;;;;;;;;;;;;5.25;100.00;96813.88;5080776;28;19952;-76
2022/11/30 08:33:24;;;;;;;;;;;;;;;5.21;100.00;96812.59;5094056;28;19955;-76
2022/11/30 08:35:50;;;;;;;;;;;;;;;5.22;100.00;96823.78;5096256;28;19963;-76
2022/11/30 08:38:16;;;;;;;;;;;;;;;5.22;100.00;96818.59;5094228;28;19954;-77
2022/11/30 08:40:42;;;;;;;;;;;;;;;5.21;100.00;96812.59;5094194;28;19960;-77
2022/11/30 08:43:08;;;;;;;;;;;;;;;5.21;100.00;96817.78;5077479;28;20005;-76
2022/11/30 08:45:34;;;;;;;;;;;;;;;5.24;100.00;96822.63;5094172;28;19999;-77
2022/11/30 08:48:00;;;;;;;;;;;;;;;5.30;100.00;96823.72;5095172;28;19962;-77
2022/11/30 08:50:26;;;;;;;;;;;;;;;5.34;100.00;96821.59;5093990;28;20485;-76
2022/11/30 08:52:52;;;;;;;;;;;;;;;5.37;100.00;96822.03;5095410;28;19953;-77
2022/11/30 08:55:18;;;;;;;;;;;;;;;5.38;100.00;96818.47;5093933;28;20434;-77
2022/11/30 08:57:44;;;;;;;;;;;;;;;5.40;100.00;96826.91;5094068;28;20018;-77
2022/11/30 09:00:10;;;;;;;;;;;;;;;5.44;100.00;96825.56;5094042;28;19953;-77
2022/11/30 09:02:36;;;;;;;;;;;;;;;5.47;100.00;96821.81;5093829;28;19951;-77
2022/11/30 09:05:02;;;;;;;;;;;;;;;5.51;100.00;96832.66;5095269;28;19948;-77
2022/11/30 09:07:27;;;;;;;;;;;;;;;5.55;100.00;96828.75;5093715;28;19976;-77
2022/11/30 09:09:53;;;;;;;;;;;;;;;5.61;100.00;96831.44;5095028;28;19958;-77
2022/11/30 09:12:19;;;;;;;;;;;;;;;5.61;100.00;96831.44;5095043;28;19968;-77
2022/11/30 09:14:46;;;;;;;;;;;;;;;5.58;100.00;96838.78;5094295;28;19955;-77
2022/11/30 09:17:12;;;;;;;;;;;;;;;5.59;100.00;96840.41;5094765;28;19952;-76
2022/11/30 09:19:38;;;;;;;;;;;;;;;5.63;100.00;96837.28;5094494;28;19951;-77
2022/11/30 09:22:04;;;;;;;;;;;;;;;5.62;100.00;96837.44;5094850;28;19974;-77
2022/11/30 09:24:30;;;;;;;;;;;;;;;5.56;100.00;96836.34;5094849;28;19950;-77
2022/11/30 09:26:56;;;;;;;;;;;;;;;5.61;100.00;96836.63;5093403;28;19961;-77
2022/11/30 09:29:22;;;;;;;;;;;;;;;5.63;100.00;96837.28;5093994;28;19965;-77
2022/11/30 09:31:48;;;;;;;;;;;;;;;5.63;100.00;96839.88;5096632;28;19952;-77
2022/11/30 09:34:14;;;;;;;;;;;;;;;5.60;100.00;96842.00;5101203;28;19978;-78
2022/11/30 09:36:40;;;;;;;;;;;;;;;5.56;100.00;96838.16;5103788;28;19954;-78
2022/11/30 09:39:08;;;;;;;;;;;;;;;5.59;100.00;96836.00;5086417;28;19963;-78
2022/11/30 09:42:04;;;;;;;;;;;;;;;5.61;100.00;96839.25;5102733;28;19966;-77
2022/11/30 09:44:49;;;;;;;;;;;;;;;5.66;100.00;96852.50;5096638;28;19947;-78
2022/11/30 09:47:32;;;;;;;;;;;;;;;5.70;100.00;96834.75;5094352;28;19969;-77
2022/11/30 09:50:01;;;;;;;;;;;;;;;5.68;100.00;96836.75;5094430;28;19953;-77
2022/11/30 09:52:32;;;;;;;;;;;;;;;5.69;100.00;96831.38;5092972;28;19951;-77
2022/11/30 09:55:02;;;;;;;;;;;;;;;5.70;100.00;96832.16;5093565;28;19944;-77
2022/11/30 09:57:30;;;;;;;;;;;;;;;5.72;100.00;96832.00;5094031;28;20393;-77
2022/11/30 09:59:57;;;;;;;;;;;;;;;5.73;100.00;96826.59;5094342;28;19944;-77
2022/11/30 10:02:26;;;;;;;;;;;;;;;5.73;100.00;96837.00;5092880;28;20431;-78
2022/11/30 10:04:52;;;;;;;;;;;;;;;5.79;100.00;96825.09;5094068;28;19949;-77
2022/11/30 10:07:30;;;;;;;;;;;;;;;5.86;100.00;96826.00;5094015;28;19990;-78
2022/11/30 10:10:09;;;;;;;;;;;;;;;5.95;100.00;96826.75;5092600;28;19954;-78
2022/11/30 10:12:40;;;;;;;;;;;;;;;6.00;100.00;96816.59;5094177;28;19959;-78
2022/11/30 10:15:15;;;;;;;;;;;;;;;6.02;100.00;96818.03;5094156;28;20404;-78
2022/11/30 10:17:49;;;;;;;;;;;;;;;6.01;100.00;96824.22;5094343;28;19952;-78
2022/11/30 10:20:15;;;;;;;;;;;;;;;6.04;100.00;96821.25;5076052;28;19954;-78
2022/11/30 10:22:47;;;;;;;;;;;;;;;6.08;100.00;96806.91;5092976;28;20059;-78
2022/11/30 10:25:13;;;;;;;;;;;;;;;6.10;100.00;96804.91;5093843;28;19958;-78
2022/11/30 10:27:50;;;;;;;;;;;;;;;6.12;100.00;96815.16;5092472;28;20474;-78
2022/11/30 10:30:21;;;;;;;;;;;;;;;6.17;100.00;96814.63;5093700;28;19945;-77
2022/11/30 10:32:49;;;;;;;;;;;;;;;6.20;100.00;96802.06;5094323;28;20346;-77
2022/11/30 10:35:33;;;;;;;;;;;;;;;6.28;100.00;96806.38;5093842;28;19984;-77
2022/11/30 10:38:02;;;;;;;;;;;;;;;6.31;100.00;96808.59;5093702;28;19949;-77
2022/11/30 10:40:47;;;;;;;;;;;;;;;6.33;100.00;96805.81;5093406;28;20410;-77
2022/11/30 10:43:13;;;;;;;;;;;;;;;6.33;100.00;96803.22;5097852;28;19972;-77
2022/11/30 10:45:43;;;;;;;;;;;;;;;6.32;100.00;96802.41;5097799;28;20417;-76
2022/11/30 10:48:13;;;;;;;;;;;;;;;6.30;100.00;96804.38;5097908;28;19963;-77
2022/11/30 10:50:40;;;;;;;;;;;;;;;6.30;100.00;96802.59;5096688;28;20286;-77
2022/11/30 10:53:08;;;;;;;;;;;;;;;6.29;100.00;96792.34;5096309;28;19947;-77
2022/11/30 10:55:37;;;;;;;;;;;;;;;6.26;100.00;96793.50;5097640;28;19957;-77
2022/11/30 10:58:13;;;;;;;;;;;;;;;6.23;100.00;96798.28;5097729;28;20344;-77
2022/11/30 11:00:42;;;;;;;;;;;;;;;6.21;100.00;96801.03;5096385;28;19972;-77
2022/11/30 11:03:22;;;;;;;;;;;;;;;6.17;100.00;96786.78;5096047;28;19958;-77
2022/11/30 11:06:01;;;;;;;;;;;;;;;6.15;100.00;96791.34;5097273;28;19947;-77
2022/11/30 11:08:27;;;;;;;;;;;;;;;6.13;100.00;96793.31;5097404;28;19967;-78
2022/11/30 11:10:53;;;;;;;;;;;;;;;6.10;100.00;96791.09;5096065;28;20364;-77
2022/11/30 11:13:34;;;;;;;;;;;;;;;6.07;100.00;96794.88;5079325;28;19999;-77
2022/11/30 11:16:01;;;;;;;;;;;;;;;6.03;100.00;96787.63;5097036;28;19944;-77
2022/11/30 11:18:28;;;;;;;;;;;;;;;6.03;100.00;96788.41;5097483;28;19957;-77
2022/11/30 11:21:02;;;;;;;;;;;;;;;6.07;100.00;96788.88;5096973;28;19952;-77
2022/11/30 11:23:28;;;;;;;;;;;;;;;6.12;100.00;96790.94;5097507;28;20393;-77
2022/11/30 11:25:55;;;;;;;;;;;;;;;6.17;100.00;96785.97;5096920;28;19999;-77
2022/11/30 11:28:23;;;;;;;;;;;;;;;6.21;100.00;96784.63;5095597;28;19961;-77
2022/11/30 11:30:51;;;;;;;;;;;;;;;6.23;100.00;96782.66;5096677;28;19950;-77
2022/11/30 11:33:19;;;;;;;;;;;;;;;6.25;100.00;96793.69;5096881;28;19953;-77
2022/11/30 11:35:48;;;;;;;;;;;;;;;6.23;100.00;96780.03;5095432;28;20330;-78
2022/11/30 11:38:27;;;;;;;;;;;;;;;6.23;100.00;96787.84;5095482;28;19955;-76
2022/11/30 11:41:04;;;;;;;;;;;;;;;6.18;100.00;96783.19;5095504;28;19970;-77
2022/11/30 11:43:31;;;;;;;;;;;;;;;6.13;100.00;96792.53;5095567;28;19953;-77
2022/11/30 11:46:00;;;;;;;;;;;;;;;6.08;100.00;96803.50;5095851;28;19953;-77
2022/11/30 11:48:34;;;;;;;;;;;;;;;6.07;100.00;96799.28;5093816;28;19965;-77
2022/11/30 11:51:04;;;;;;;;;;;;;;;6.07;100.00;96796.69;5079004;28;19947;-77
2022/11/30 11:53:40;;;;;;;;;;;;;;;6.06;100.00;96800.25;5093641;28;20313;-78
2022/11/30 11:56:15;;;;;;;;;;;;;;;5.92;100.00;96796.63;5095123;28;19955;-77
2022/11/30 11:58:59;;;;;;;;;;;;;;;5.85;100.00;96806.94;5095159;28;19946;-78
2022/11/30 12:01:42;;;;;;;;;;;;;;;5.78;100.00;96802.66;5093805;28;19945;-77
2022/11/30 12:04:26;;;;;;;;;;;;;;;5.70;100.00;96811.34;5094003;28;19953;-77
2022/11/30 12:06:54;;;;;;;;;;;;;;;5.66;100.00;96804.88;5094845;28;19961;-77
2022/11/30 12:09:27;;;;;;;;;;;;;;;5.66;100.00;96804.88;5095493;28;19954;-77
2022/11/30 12:11:53;;;;;;;;;;;;;;;5.68;100.00;96801.09;5095409;28;19954;-77
2022/11/30 12:14:19;;;;;;;;;;;;;;;5.72;100.00;96798.16;5095460;28;19946;-77
2022/11/30 12:17:06;;;;;;;;;;;;;;;5.71;100.00;96797.34;5093663;28;20025;-77
2022/11/30 12:19:38;;;;;;;;;;;;;;;5.69;100.00;96801.91;5093670;28;19946;-77
2022/11/30 12:22:23;;;;;;;;;;;;;;;5.71;100.00;96802.53;5085089;28;20331;-78
2022/11/30 12:25:01;;;;;;;;;;;;;;;5.74;100.00;96797.00;5094652;28;19964;-77
2022/11/30 12:27:41;;;;;;;;;;;;;;;5.78;100.00;96800.84;5094721;28;19967;-77
2022/11/30 12:30:10;;;;;;;;;;;;;;;5.82;100.00;96794.31;5093627;28;19949;-78
2022/11/30 12:32:55;;;;;;;;;;;;;;;5.85;100.00;96793.94;5093548;28;19961;-78
2022/11/30 12:35:25;;;;;;;;;;;;;;;5.89;100.00;96794.41;5031182;28;1821769;-78
2022/11/30 12:37:54;;;;;;;;;;;;;;;5.92;100.00;96801.03;5095894;28;19963;-78
2022/11/30 12:40:23;;;;;;;;;;;;;;;5.93;100.00;96789.66;5095595;28;20309;-78
2022/11/30 12:43:01;;;;;;;;;;;;;;;5.94;100.00;96794.66;5095405;28;19971;-78
2022/11/30 12:45:32;;;;;;;;;;;;;;;5.95;100.00;96785.09;5095727;28;20426;-77
2022/11/30 12:47:58;;;;;;;;;;;;;;;5.89;100.00;96781.38;5095305;28;19956;-77
2022/11/30 12:50:27;;;;;;;;;;;;;;;5.90;100.00;96785.63;5095714;28;19970;-77
2022/11/30 12:52:53;;;;;;;;;;;;;;;5.92;100.00;96788.03;5095291;28;19951;-78
2022/11/30 12:55:27;;;;;;;;;;;;;;;5.93;100.00;96795.66;5077032;28;20043;-77